メインページ
METAR-TAF:

METAR-TAF

空港 :

アドルフォ・スアレス・マドリード=バラハス空港

マドリード, スペイン

緯度: 40-27N, 経度: 003-33W, 海抜: 609m

現時点の気象観測

当レポートは25分前の23:30(UTC)に作成
北/北西の風 4kt、西から北/北東の間で変化する
気温 12°C
湿度 100%
気圧 1019 hPa
視程: 7000m
高度2500ftの雲はほとんどない
高度3000ftの千切れ雲あり

METAR: LEMD 142330Z 33004KT 270V020 7000 FEW025 BKN030 12/12 Q1019 R32R/29//95 R36L/19//95 NOSIG

時間: 00:55 (23:55 UTC)

予報

当レポートは55分前の23:00(UTC)に作成
予報は15日の 00時(UTC)から 16日の 06時(UTC)まで有効
北/北東の風 7kt
視程10km以上
高度3000ftの雲は散在している
高度5000ftの千切れ雲あり
15日の 02時(UTC)から 15日の 06時(UTC)まで一時的に
高度1400ftの千切れ雲あり
確率 30% :
15日の 04時(UTC)から 15日の 08時(UTC)まで一時的に
視程: 3000m
高度800ftの千切れ雲あり
散在霧

TAF: LEMD 142300Z 1500/1606 03007KT 9999 SCT030 BKN050 TX18/1515Z TN08/1506Z TEMPO 1502/1506 BKN014 PROB30 TEMPO 1504/1508 3000 BCFG BKN008

4,000以上の空港の気象観測と天気予報(METAR報とTAF報)

利用可能な観測所は地図上に黄色い丸と赤い丸で示す。

丸の上にカーソルを重ねると観測所名を参照できる。

次にクリックすると気象観測と天気予報を参照できる。

マップの切り替え:黒色「×」印の緑ボタンをクリックして拡大、「-」印の緑ボタンをクリックして縮小、緑色の三角印をクリックして隣りの地図に切り替え


METAR-TAF: